createdAt,value
2023-03-30T00:00:18.361Z,13.10
2023-03-30T00:02:49.208Z,13.10
2023-03-30T00:05:18.817Z,13.10
2023-03-30T00:07:46.050Z,13.10
2023-03-30T00:10:14.481Z,13.10
2023-03-30T00:12:41.074Z,13.10
2023-03-30T00:15:09.401Z,13.00
2023-03-30T00:17:36.513Z,13.00
2023-03-30T00:20:06.022Z,13.00
2023-03-30T00:22:32.738Z,13.00
2023-03-30T00:24:59.405Z,13.00
2023-03-30T00:27:26.045Z,13.00
2023-03-30T00:29:52.557Z,12.90
2023-03-30T00:32:19.017Z,12.90
2023-03-30T00:34:45.639Z,12.90
2023-03-30T00:37:12.091Z,12.90
2023-03-30T00:39:38.788Z,12.90
2023-03-30T00:42:05.366Z,12.90
2023-03-30T00:44:50.812Z,12.90
2023-03-30T00:47:17.547Z,12.90
2023-03-30T00:49:44.707Z,12.90
2023-03-30T00:52:11.966Z,12.80
2023-03-30T00:54:38.898Z,12.80
2023-03-30T00:57:06.493Z,12.80
2023-03-30T00:59:33.569Z,12.80
2023-03-30T01:02:00.568Z,12.90
2023-03-30T01:04:28.282Z,12.90
2023-03-30T01:06:55.210Z,12.90
2023-03-30T01:09:22.623Z,13.00
2023-03-30T01:11:49.156Z,13.00
2023-03-30T01:14:16.382Z,13.00
2023-03-30T01:16:45.708Z,13.00
2023-03-30T01:19:31.357Z,13.10
2023-03-30T01:22:25.423Z,13.10
2023-03-30T01:25:09.923Z,13.00
2023-03-30T01:27:55.427Z,13.10
2023-03-30T01:30:28.853Z,13.10
2023-03-30T01:33:03.741Z,13.10
2023-03-30T01:35:30.437Z,13.10
2023-03-30T01:38:04.755Z,13.10
2023-03-30T01:40:37.322Z,13.20
2023-03-30T01:43:17.227Z,13.20
2023-03-30T01:45:46.058Z,13.30
2023-03-30T01:48:19.741Z,13.30
2023-03-30T01:50:46.940Z,13.30
2023-03-30T01:53:18.236Z,13.30
2023-03-30T01:56:03.422Z,13.20
2023-03-30T01:58:51.471Z,13.20
2023-03-30T02:01:20.453Z,13.30
2023-03-30T02:03:50.013Z,13.30
2023-03-30T02:06:27.003Z,13.30
2023-03-30T02:08:55.683Z,13.30
2023-03-30T02:11:23.451Z,13.30
2023-03-30T02:13:51.310Z,13.30
2023-03-30T02:16:22.535Z,13.10
2023-03-30T02:18:49.072Z,13.10
2023-03-30T02:21:16.252Z,13.10
2023-03-30T02:23:45.165Z,13.00
2023-03-30T02:26:12.234Z,13.10
2023-03-30T02:28:39.028Z,13.20
2023-03-30T02:31:09.799Z,13.20
2023-03-30T02:33:51.049Z,13.20
2023-03-30T02:36:20.579Z,13.20
2023-03-30T02:38:57.322Z,13.30
2023-03-30T02:41:36.486Z,13.30
2023-03-30T02:44:18.323Z,13.30
2023-03-30T02:47:05.112Z,13.40
2023-03-30T02:49:43.942Z,13.30
2023-03-30T02:52:37.463Z,13.30
2023-03-30T02:55:12.350Z,13.20
2023-03-30T02:57:38.799Z,13.20
2023-03-30T03:00:17.086Z,13.10
2023-03-30T03:02:48.466Z,13.00
2023-03-30T03:05:16.520Z,12.90
2023-03-30T03:07:44.884Z,12.80
2023-03-30T03:10:11.531Z,12.70
2023-03-30T03:12:38.060Z,12.60
2023-03-30T03:15:05.724Z,12.60
2023-03-30T03:17:35.194Z,12.50
2023-03-30T03:20:02.554Z,12.40
2023-03-30T03:22:29.136Z,12.40
2023-03-30T03:24:55.790Z,12.40
2023-03-30T03:27:22.302Z,12.40
2023-03-30T03:29:49.464Z,12.30
2023-03-30T03:32:16.282Z,12.30
2023-03-30T03:34:45.720Z,12.20
2023-03-30T03:37:12.705Z,12.30
2023-03-30T03:39:39.403Z,12.20
2023-03-30T03:42:06.300Z,12.20
2023-03-30T03:44:33.119Z,12.20
2023-03-30T03:46:59.599Z,12.20
2023-03-30T03:49:26.241Z,12.30
2023-03-30T03:51:53.483Z,12.30
2023-03-30T03:54:20.049Z,12.30
2023-03-30T03:56:47.120Z,12.30
2023-03-30T03:59:13.603Z,12.40
2023-03-30T04:01:40.225Z,12.40
2023-03-30T04:04:07.133Z,12.40
2023-03-30T04:06:33.828Z,12.40
2023-03-30T04:09:01.729Z,12.40
2023-03-30T04:11:28.285Z,12.40
2023-03-30T04:13:54.769Z,12.40
2023-03-30T04:16:21.352Z,12.40
2023-03-30T04:18:47.935Z,12.40
2023-03-30T04:21:17.500Z,12.40
2023-03-30T04:23:48.756Z,12.50
2023-03-30T04:26:15.645Z,12.50
2023-03-30T04:28:42.213Z,12.60
2023-03-30T04:31:10.420Z,12.60
2023-03-30T04:33:38.862Z,12.60
2023-03-30T04:36:05.562Z,12.60
2023-03-30T04:38:32.122Z,12.60
2023-03-30T04:41:00.268Z,12.60
2023-03-30T04:43:26.778Z,12.70
2023-03-30T04:45:54.310Z,12.70
2023-03-30T04:48:21.895Z,12.70
2023-03-30T04:50:49.629Z,12.70
2023-03-30T04:53:17.001Z,12.70
2023-03-30T04:55:47.340Z,12.70
2023-03-30T04:58:14.081Z,12.70
2023-03-30T05:00:41.082Z,12.70
2023-03-30T05:03:07.772Z,12.70
2023-03-30T05:05:34.381Z,12.70
2023-03-30T05:08:00.861Z,12.70
2023-03-30T05:10:27.355Z,12.70
2023-03-30T05:12:54.958Z,12.80
2023-03-30T05:15:21.670Z,12.70
2023-03-30T05:17:48.192Z,12.70
2023-03-30T05:20:15.026Z,12.80
2023-03-30T05:22:41.614Z,12.80
2023-03-30T05:25:08.941Z,12.90
2023-03-30T05:27:35.774Z,12.90
2023-03-30T05:30:03.912Z,12.90
2023-03-30T05:32:30.411Z,12.90
2023-03-30T05:34:57.578Z,13.00
2023-03-30T05:37:24.144Z,13.00
2023-03-30T05:39:50.743Z,13.00
2023-03-30T05:42:17.190Z,13.00
2023-03-30T05:44:43.759Z,13.00
2023-03-30T05:47:10.323Z,13.00
2023-03-30T05:49:36.783Z,13.10
2023-03-30T05:52:03.620Z,13.10
2023-03-30T05:54:30.175Z,13.10
2023-03-30T05:56:56.738Z,13.10
2023-03-30T05:59:23.802Z,13.10
2023-03-30T06:01:50.341Z,13.00
2023-03-30T06:04:17.670Z,13.00
2023-03-30T06:06:44.285Z,13.00
2023-03-30T06:09:11.150Z,13.00
2023-03-30T06:11:37.638Z,13.00
2023-03-30T06:14:04.106Z,13.00
2023-03-30T06:16:31.739Z,13.00
2023-03-30T06:18:58.319Z,13.00
2023-03-30T06:21:25.103Z,13.10
2023-03-30T06:23:51.643Z,13.10
2023-03-30T06:26:18.779Z,13.10
2023-03-30T06:28:45.264Z,13.10
2023-03-30T06:31:11.999Z,13.20
2023-03-30T06:33:41.552Z,13.20
2023-03-30T06:36:12.590Z,13.30
2023-03-30T06:38:39.405Z,13.30
2023-03-30T06:41:08.264Z,13.40
2023-03-30T06:43:34.745Z,13.40
2023-03-30T06:46:01.487Z,13.40
2023-03-30T06:48:28.045Z,13.40
2023-03-30T06:50:55.005Z,13.50
2023-03-30T06:53:22.198Z,13.40
2023-03-30T06:55:55.964Z,13.40
2023-03-30T06:58:22.691Z,13.30
2023-03-30T07:00:49.409Z,13.30
2023-03-30T07:03:18.799Z,13.30
2023-03-30T07:05:49.381Z,13.30
2023-03-30T07:08:16.215Z,13.30
2023-03-30T07:10:43.220Z,13.40
2023-03-30T07:13:09.794Z,13.40
2023-03-30T07:15:36.751Z,13.40
2023-03-30T07:18:03.796Z,13.40
2023-03-30T07:20:30.365Z,13.40
2023-03-30T07:22:56.837Z,13.40
2023-03-30T07:25:23.857Z,13.40
2023-03-30T07:27:50.551Z,13.50
2023-03-30T07:30:21.812Z,13.60
2023-03-30T07:32:50.468Z,13.70
2023-03-30T07:35:17.272Z,13.80
2023-03-30T07:37:43.781Z,14.00
2023-03-30T07:40:10.587Z,14.20
2023-03-30T07:42:37.116Z,14.30
2023-03-30T07:45:04.186Z,14.30
2023-03-30T07:47:30.786Z,14.50
2023-03-30T07:49:57.302Z,14.70
2023-03-30T07:52:23.760Z,14.90
2023-03-30T07:54:50.354Z,15.10
2023-03-30T07:57:17.066Z,15.20
2023-03-30T07:59:43.582Z,15.20
2023-03-30T08:02:12.132Z,15.10
2023-03-30T08:04:38.763Z,15.10
2023-03-30T08:07:05.281Z,15.10
2023-03-30T08:09:31.777Z,15.10
2023-03-30T08:11:58.214Z,15.00
2023-03-30T08:14:27.371Z,14.90
2023-03-30T08:16:54.312Z,14.70
2023-03-30T08:19:21.542Z,14.70
2023-03-30T08:21:48.012Z,14.60
2023-03-30T08:24:14.462Z,14.60
2023-03-30T08:26:41.976Z,14.70
2023-03-30T08:29:08.562Z,14.80
2023-03-30T08:31:37.344Z,14.80
2023-03-30T08:34:04.506Z,14.80
2023-03-30T08:36:31.364Z,14.70
2023-03-30T08:38:58.070Z,14.70
2023-03-30T08:41:24.542Z,14.60
2023-03-30T08:43:53.901Z,14.60
2023-03-30T08:46:20.855Z,14.60
2023-03-30T08:48:48.035Z,14.60
2023-03-30T08:51:14.480Z,14.60
2023-03-30T08:53:41.435Z,14.50
2023-03-30T08:56:19.398Z,14.60
2023-03-30T08:58:52.001Z,14.60
2023-03-30T09:01:20.652Z,14.60
2023-03-30T09:03:50.504Z,14.60
2023-03-30T09:06:25.363Z,14.50
2023-03-30T09:08:52.535Z,14.50
2023-03-30T09:11:24.426Z,14.50
2023-03-30T09:13:51.367Z,14.40
2023-03-30T09:16:30.237Z,14.40
2023-03-30T09:18:58.257Z,14.40
2023-03-30T09:21:27.438Z,14.30
2023-03-30T09:23:56.063Z,14.30
2023-03-30T09:26:43.549Z,14.30
2023-03-30T09:29:14.005Z,14.20
2023-03-30T09:31:46.761Z,14.20
2023-03-30T09:34:22.948Z,14.10
2023-03-30T09:36:49.396Z,14.10
2023-03-30T09:39:23.939Z,14.10
2023-03-30T09:41:56.335Z,14.00
2023-03-30T09:44:37.205Z,14.00
2023-03-30T09:47:15.710Z,14.00
2023-03-30T09:49:42.954Z,13.90
2023-03-30T09:52:18.596Z,13.90
2023-03-30T09:54:45.230Z,13.90
2023-03-30T09:57:23.599Z,13.80
2023-03-30T09:59:50.124Z,13.80
2023-03-30T10:02:20.569Z,13.70
2023-03-30T10:04:53.517Z,13.60
2023-03-30T10:07:24.669Z,13.60
2023-03-30T10:09:51.606Z,13.60
2023-03-30T10:12:18.597Z,13.50
2023-03-30T10:14:45.397Z,13.40
2023-03-30T10:17:19.958Z,13.40
2023-03-30T10:19:49.458Z,13.30
2023-03-30T10:22:22.151Z,13.30
2023-03-30T10:24:53.058Z,13.30
2023-03-30T10:27:19.789Z,13.30
2023-03-30T10:29:48.499Z,13.20
2023-03-30T10:32:20.430Z,13.20
2023-03-30T10:34:49.127Z,13.20
2023-03-30T10:37:16.795Z,13.30
2023-03-30T10:39:44.276Z,13.20
2023-03-30T10:42:14.508Z,13.20
2023-03-30T10:44:46.294Z,13.20
2023-03-30T10:47:28.220Z,13.30
2023-03-30T10:50:13.915Z,13.30
2023-03-30T10:52:48.828Z,13.50
2023-03-30T10:55:39.850Z,13.90
2023-03-30T10:58:24.781Z,14.10
2023-03-30T11:00:56.869Z,14.20
2023-03-30T11:03:32.382Z,14.30
2023-03-30T11:06:04.315Z,14.20
2023-03-30T11:08:34.787Z,14.10
2023-03-30T11:11:01.407Z,14.10
2023-03-30T11:13:28.925Z,14.10
2023-03-30T11:15:58.428Z,14.00
2023-03-30T11:18:34.191Z,14.00
2023-03-30T11:21:17.754Z,14.00
2023-03-30T11:23:59.793Z,14.00
2023-03-30T11:26:38.451Z,13.90
2023-03-30T11:29:16.897Z,13.90
2023-03-30T11:32:02.145Z,13.80
2023-03-30T11:34:36.984Z,13.80
2023-03-30T11:37:12.523Z,13.90
2023-03-30T11:39:41.443Z,13.90
2023-03-30T11:42:17.209Z,13.90
2023-03-30T11:44:43.888Z,13.90
2023-03-30T11:47:25.889Z,14.00
2023-03-30T11:49:55.589Z,14.00
2023-03-30T11:52:29.218Z,14.10
2023-03-30T11:55:14.807Z,14.10
2023-03-30T11:58:10.740Z,14.10
2023-03-30T12:00:48.102Z,14.00
2023-03-30T12:03:33.548Z,14.00
2023-03-30T12:06:04.047Z,14.00
2023-03-30T12:08:36.527Z,14.10
2023-03-30T12:11:12.992Z,14.00
2023-03-30T12:13:50.308Z,14.00
2023-03-30T12:16:20.439Z,14.00
2023-03-30T12:19:06.099Z,14.00
2023-03-30T12:21:55.918Z,13.90
2023-03-30T12:24:41.460Z,13.90
2023-03-30T12:27:11.120Z,13.90
2023-03-30T12:30:02.267Z,13.90
2023-03-30T12:32:30.803Z,13.90
2023-03-30T12:34:57.922Z,13.90
2023-03-30T12:37:33.254Z,13.80
2023-03-30T12:39:59.742Z,13.70
2023-03-30T12:42:34.227Z,13.60
2023-03-30T12:45:06.749Z,13.60
2023-03-30T12:47:45.607Z,13.50
2023-03-30T12:50:38.568Z,13.50
2023-03-30T12:53:33.245Z,13.40
2023-03-30T12:55:59.689Z,13.30
2023-03-30T12:58:38.505Z,13.30
2023-03-30T13:01:05.552Z,13.20
2023-03-30T13:03:38.513Z,13.20
2023-03-30T13:06:06.749Z,13.20
2023-03-30T13:08:38.241Z,13.20
2023-03-30T13:11:10.952Z,13.20
2023-03-30T13:13:57.733Z,13.10
2023-03-30T13:16:43.294Z,13.10
2023-03-30T13:19:14.698Z,13.20
2023-03-30T13:21:46.582Z,13.30
2023-03-30T13:24:22.376Z,13.30
2023-03-30T13:26:49.671Z,13.30
2023-03-30T13:29:17.208Z,13.30
2023-03-30T13:31:59.778Z,13.40
2023-03-30T13:34:58.479Z,13.50
2023-03-30T13:37:51.214Z,13.60
2023-03-30T13:41:03.805Z,13.60
2023-03-30T13:43:51.225Z,13.60
2023-03-30T13:46:18.139Z,13.80
2023-03-30T13:48:55.590Z,13.80
2023-03-30T13:51:24.183Z,13.80
2023-03-30T13:53:52.923Z,13.90
2023-03-30T13:56:19.695Z,14.00
2023-03-30T13:58:50.043Z,14.00
2023-03-30T14:01:19.340Z,14.00
2023-03-30T14:03:56.608Z,14.00
2023-03-30T14:06:27.836Z,14.00
2023-03-30T14:09:06.364Z,14.10
2023-03-30T14:11:44.484Z,14.30
2023-03-30T14:14:22.922Z,14.50
2023-03-30T14:16:50.730Z,14.60
2023-03-30T14:19:25.049Z,14.60
2023-03-30T14:21:55.511Z,14.60
2023-03-30T14:24:30.299Z,14.70
2023-03-30T14:27:11.974Z,14.60
2023-03-30T14:29:45.589Z,14.50
2023-03-30T14:32:14.726Z,14.60
2023-03-30T14:34:45.663Z,14.70
2023-03-30T14:37:12.715Z,14.80
2023-03-30T14:39:51.110Z,14.80
2023-03-30T14:42:21.887Z,14.80
2023-03-30T14:44:49.722Z,14.80
2023-03-30T14:47:18.758Z,14.90
2023-03-30T14:49:47.310Z,14.90
2023-03-30T14:52:17.873Z,14.90
2023-03-30T14:54:57.681Z,14.90
2023-03-30T14:57:34.695Z,14.90
2023-03-30T15:00:01.855Z,15.00
2023-03-30T15:02:29.630Z,15.00
2023-03-30T15:04:56.984Z,15.00
2023-03-30T15:07:24.343Z,15.00
2023-03-30T15:09:54.826Z,15.10
2023-03-30T15:12:24.491Z,15.10
2023-03-30T15:14:51.203Z,15.10
2023-03-30T15:17:19.166Z,15.20
2023-03-30T15:19:47.070Z,15.20
2023-03-30T15:22:21.910Z,15.20
2023-03-30T15:24:48.382Z,15.20
2023-03-30T15:27:15.820Z,15.20
2023-03-30T15:29:42.426Z,15.20
2023-03-30T15:32:19.508Z,15.20
2023-03-30T15:35:04.268Z,15.20
2023-03-30T15:37:31.781Z,15.20
2023-03-30T15:39:58.266Z,15.20
2023-03-30T15:42:31.908Z,15.20
2023-03-30T15:45:12.815Z,15.20
2023-03-30T15:47:39.686Z,15.20
2023-03-30T15:50:11.327Z,15.20
2023-03-30T15:52:41.712Z,15.20
2023-03-30T15:55:14.395Z,15.20
2023-03-30T15:57:46.382Z,15.20
2023-03-30T16:00:20.468Z,15.20
2023-03-30T16:02:57.662Z,15.20
2023-03-30T16:05:25.907Z,15.20
2023-03-30T16:07:52.473Z,15.20
2023-03-30T16:10:21.085Z,15.20
2023-03-30T16:12:48.341Z,15.20
2023-03-30T16:15:16.316Z,15.10
2023-03-30T16:17:42.969Z,15.10
2023-03-30T16:20:19.872Z,15.00
2023-03-30T16:22:47.321Z,15.00
2023-03-30T16:25:17.791Z,15.00
2023-03-30T16:27:44.780Z,15.00
2023-03-30T16:30:17.464Z,15.00
2023-03-30T16:32:44.034Z,15.00
2023-03-30T16:35:10.998Z,15.10
2023-03-30T16:37:37.631Z,15.20
2023-03-30T16:40:13.562Z,15.20
2023-03-30T16:42:40.108Z,15.20
2023-03-30T16:45:06.982Z,15.20
2023-03-30T16:47:33.497Z,15.30
2023-03-30T16:50:00.428Z,15.20
2023-03-30T16:52:26.981Z,15.20
2023-03-30T16:54:53.435Z,15.20
2023-03-30T16:57:19.957Z,15.20
2023-03-30T16:59:46.838Z,15.30
2023-03-30T17:02:17.495Z,15.30
2023-03-30T17:04:45.620Z,15.30
2023-03-30T17:07:12.140Z,15.30
2023-03-30T17:09:38.586Z,15.40
2023-03-30T17:12:05.175Z,15.30
2023-03-30T17:14:31.644Z,15.30
2023-03-30T17:16:58.171Z,15.30
2023-03-30T17:19:25.313Z,15.20
2023-03-30T17:21:51.998Z,15.20
2023-03-30T17:24:18.568Z,15.20
2023-03-30T17:26:45.282Z,15.20
2023-03-30T17:29:11.875Z,15.20
2023-03-30T17:31:38.582Z,15.20
2023-03-30T17:34:06.629Z,15.20
2023-03-30T17:36:33.176Z,15.20
2023-03-30T17:38:59.726Z,15.10
2023-03-30T17:41:26.309Z,15.00
2023-03-30T17:43:52.783Z,14.90
2023-03-30T17:46:19.945Z,14.80
2023-03-30T17:48:46.599Z,14.70
2023-03-30T17:51:13.102Z,14.70
2023-03-30T17:53:39.585Z,14.60
2023-03-30T17:56:06.570Z,14.60
2023-03-30T17:58:34.338Z,14.50
2023-03-30T18:01:01.747Z,14.50
2023-03-30T18:03:31.325Z,14.50
2023-03-30T18:05:58.844Z,14.40
2023-03-30T18:08:26.470Z,14.40
2023-03-30T18:10:57.064Z,14.40
2023-03-30T18:13:24.197Z,14.30
2023-03-30T18:15:52.109Z,14.30
2023-03-30T18:18:22.930Z,14.30
2023-03-30T18:20:53.118Z,14.30
2023-03-30T18:23:19.950Z,14.20
2023-03-30T18:25:46.536Z,14.20
2023-03-30T18:28:17.564Z,14.20
2023-03-30T18:30:44.124Z,14.20
2023-03-30T18:33:10.667Z,14.20
2023-03-30T18:35:37.390Z,14.20
2023-03-30T18:38:04.365Z,14.20
2023-03-30T18:40:32.964Z,14.10
2023-03-30T18:42:59.814Z,14.10
2023-03-30T18:45:27.780Z,14.10
2023-03-30T18:47:54.703Z,14.00
2023-03-30T18:50:29.830Z,14.00
2023-03-30T18:52:56.337Z,14.00
2023-03-30T18:55:26.768Z,14.00
2023-03-30T18:57:53.237Z,14.00
2023-03-30T19:00:24.118Z,14.00
2023-03-30T19:02:50.911Z,14.00
2023-03-30T19:05:18.358Z,14.00
2023-03-30T19:07:45.701Z,14.00
2023-03-30T19:10:13.712Z,14.00
2023-03-30T19:12:40.218Z,13.90
2023-03-30T19:15:07.154Z,13.90
2023-03-30T19:17:33.704Z,13.90
2023-03-30T19:20:00.273Z,13.90
2023-03-30T19:22:26.741Z,13.90
2023-03-30T19:24:53.268Z,13.90
2023-03-30T19:27:19.844Z,13.90
2023-03-30T19:29:46.369Z,13.90
2023-03-30T19:32:12.842Z,13.90
2023-03-30T19:34:39.815Z,13.90
2023-03-30T19:37:06.647Z,13.90
2023-03-30T19:39:33.130Z,13.90
2023-03-30T19:41:59.701Z,13.90
2023-03-30T19:44:26.490Z,13.90
2023-03-30T19:46:53.449Z,13.90
2023-03-30T19:49:19.931Z,13.90
2023-03-30T19:51:47.839Z,13.80
2023-03-30T19:54:14.431Z,13.80
2023-03-30T19:56:41.118Z,13.80
2023-03-30T19:59:08.025Z,13.80
2023-03-30T20:01:34.713Z,13.80
2023-03-30T20:04:01.389Z,13.80
2023-03-30T20:06:27.932Z,13.80
2023-03-30T20:08:54.884Z,13.80
2023-03-30T20:11:22.280Z,13.80
2023-03-30T20:13:49.269Z,13.70
2023-03-30T20:16:22.810Z,13.70
2023-03-30T20:18:50.573Z,13.70
2023-03-30T20:21:18.172Z,13.70
2023-03-30T20:23:45.083Z,13.70
2023-03-30T20:26:12.148Z,13.60
2023-03-30T20:28:38.658Z,13.70
2023-03-30T20:31:05.760Z,13.60
2023-03-30T20:33:33.148Z,13.60
2023-03-30T20:35:59.741Z,13.60
2023-03-30T20:38:26.367Z,13.60
2023-03-30T20:40:54.174Z,13.50
2023-03-30T20:43:20.663Z,13.50
2023-03-30T20:45:48.296Z,13.50
2023-03-30T20:48:27.311Z,13.50
2023-03-30T20:50:54.730Z,13.50
2023-03-30T20:53:21.415Z,13.50
2023-03-30T20:55:48.257Z,13.50
2023-03-30T20:58:14.832Z,13.50
2023-03-30T21:00:41.424Z,13.50
2023-03-30T21:03:08.693Z,13.50
2023-03-30T21:05:35.188Z,13.50
2023-03-30T21:08:01.719Z,13.50
2023-03-30T21:10:28.221Z,13.50
2023-03-30T21:12:54.716Z,13.50
2023-03-30T21:15:21.494Z,13.40
2023-03-30T21:17:48.142Z,13.40
2023-03-30T21:20:14.760Z,13.40
2023-03-30T21:22:41.238Z,13.40
2023-03-30T21:25:07.941Z,13.30
2023-03-30T21:27:34.406Z,13.30
2023-03-30T21:30:00.902Z,13.30
2023-03-30T21:32:29.360Z,13.30
2023-03-30T21:34:57.742Z,13.30
2023-03-30T21:37:24.278Z,13.30
2023-03-30T21:39:51.022Z,13.30
2023-03-30T21:42:17.916Z,13.30
2023-03-30T21:44:44.406Z,13.30
2023-03-30T21:47:14.871Z,13.30
2023-03-30T21:49:41.370Z,13.30
2023-03-30T21:52:08.924Z,13.30
2023-03-30T21:54:35.447Z,13.30
2023-03-30T21:57:01.981Z,13.30
2023-03-30T21:59:28.521Z,13.40
2023-03-30T22:01:55.174Z,13.40
2023-03-30T22:04:21.813Z,13.40
2023-03-30T22:06:48.276Z,13.40
2023-03-30T22:09:14.852Z,13.40
2023-03-30T22:11:41.329Z,13.40
2023-03-30T22:14:07.990Z,13.40
2023-03-30T22:16:36.507Z,13.40
2023-03-30T22:19:04.097Z,13.40
2023-03-30T22:21:34.245Z,13.40
2023-03-30T22:24:02.040Z,13.40
2023-03-30T22:26:28.783Z,13.40
2023-03-30T22:28:55.403Z,13.30
2023-03-30T22:31:22.023Z,13.40
2023-03-30T22:33:48.560Z,13.40
2023-03-30T22:36:15.227Z,13.40
2023-03-30T22:38:42.411Z,13.40
2023-03-30T22:41:10.094Z,13.40
2023-03-30T22:43:36.775Z,13.40
2023-03-30T22:46:04.168Z,13.40
2023-03-30T22:48:30.815Z,13.40
2023-03-30T22:50:58.481Z,13.40
2023-03-30T22:53:24.987Z,13.40
2023-03-30T22:55:51.453Z,13.40
2023-03-30T22:58:17.924Z,13.40
2023-03-30T23:00:44.439Z,13.40
2023-03-30T23:03:11.051Z,13.40
2023-03-30T23:05:37.587Z,13.40
2023-03-30T23:08:04.441Z,13.30
2023-03-30T23:10:33.761Z,13.30
2023-03-30T23:13:00.497Z,13.30
2023-03-30T23:15:29.054Z,13.10
2023-03-30T23:17:55.677Z,12.90
2023-03-30T23:20:22.191Z,12.80
2023-03-30T23:22:49.158Z,12.60
2023-03-30T23:25:16.370Z,12.50
2023-03-30T23:27:42.939Z,12.50
2023-03-30T23:30:09.592Z,12.40
2023-03-30T23:32:36.074Z,12.40
2023-03-30T23:35:02.662Z,12.30
2023-03-30T23:37:30.126Z,12.10
2023-03-30T23:39:58.746Z,12.10
2023-03-30T23:42:25.674Z,12.00
2023-03-30T23:44:52.170Z,11.90
2023-03-30T23:47:18.692Z,11.90
2023-03-30T23:49:45.365Z,11.80
2023-03-30T23:52:11.831Z,11.80
2023-03-30T23:54:40.704Z,11.80
2023-03-30T23:57:08.087Z,11.80
2023-03-30T23:59:35.178Z,11.90
